Terminal Aerodrome Forecast
Issued by NWS

Home | Current Version | Previous Version | Graphics & Text | Print | Product List | Glossary On
Versions: 1 2 3 4 5 6 7 8 9 10 11 12 13 14 15 16 17 18 19 20
000
FTUS43 KABR 280808 AAA
TAFPIR
TAF AMD
KPIR 280808Z 2808/2906 VRB03KT 5SM BR OVC009
      TEMPO 2809/2812 1/2SM FG BKN002
     FM281400 18006KT P6SM SKC=

USA.gov is the U.S. government's official web portal to all federal, state and local government web resources and services.